Time;durP1;ratioP1;P1;durP2;ratioP2;P2;SDS_P1;SDS_P2;PMS_P1;PMS_P2;Temp;Humidity;BMP_temperature;BMP_pressure;BME280_temperature;BME280_humidity;BME280_pressure;Samples;Min_cycle;Max_cycle;Signal;HPM_P1;HPM_P2
2023/02/03 00:02:06;;;;;;;6.70;2.70;;;;;;;2.67;100.00;97402.00;6221518;22;20053;-90
2023/02/03 00:04:34;;;;;;;7.90;3.23;;;;;;;2.66;100.00;97400.34;6222509;22;20012;-91
2023/02/03 00:07:08;;;;;;;6.77;2.83;;;;;;;2.67;100.00;97386.41;6221570;22;20019;-90
2023/02/03 00:09:34;;;;;;;6.50;2.80;;;;;;;2.66;100.00;97379.56;6221744;22;20042;-91
2023/02/03 00:12:12;;;;;;;4.33;2.47;;;;;;;2.66;100.00;97379.56;6220535;22;20102;-90
2023/02/03 00:14:53;;;;;;;8.60;2.80;;;;;;;2.71;100.00;97395.72;6221134;22;20058;-91
2023/02/03 00:17:40;;;;;;;5.73;2.73;;;;;;;2.67;100.00;97386.41;6222364;22;20031;-91
2023/02/03 00:20:07;;;;;;;7.27;2.50;;;;;;;2.68;100.00;97388.91;6221828;22;20095;-90
2023/02/03 00:22:35;;;;;;;6.23;2.37;;;;;;;2.69;100.00;97384.59;6227060;22;20007;-90
2023/02/03 00:25:17;;;;;;;4.80;2.10;;;;;;;2.70;100.00;97383.66;6232143;22;20016;-90
2023/02/03 00:28:08;;;;;;;6.53;2.70;;;;;;;2.70;100.00;97383.66;6235994;22;20021;-90
2023/02/03 00:30:43;;;;;;;7.93;2.17;;;;;;;2.69;100.00;97387.19;6224006;22;20008;-91
2023/02/03 00:33:09;;;;;;;7.80;2.70;;;;;;;2.77;100.00;97378.03;6222308;22;20019;-91
2023/02/03 00:35:39;;;;;;;7.03;2.00;;;;;;;2.75;100.00;97394.63;6222316;22;20141;-91
2023/02/03 00:38:17;;;;;;;6.77;1.80;;;;;;;2.74;100.00;97408.53;6222826;22;20015;-90
2023/02/03 00:40:50;;;;;;;;;;;;;;;2.73;100.00;97404.28;6222059;22;20023;-91
2023/02/03 00:43:19;;;;;;;5.10;2.13;;;;;;;2.76;100.00;97412.75;6218967;22;19911;-90
2023/02/03 00:45:48;;;;;;;4.80;1.80;;;;;;;2.74;100.00;97405.94;6216232;22;20012;-91
2023/02/03 00:48:16;;;;;;;8.20;2.67;;;;;;;2.80;100.00;97403.03;6217364;22;20008;-90
2023/02/03 00:50:46;;;;;;;5.17;2.00;;;;;;;2.78;100.00;97397.91;6218149;22;20012;-90
2023/02/03 00:53:15;;;;;;;3.83;1.57;;;;;;;2.78;100.00;97410.91;6217501;22;20030;-91
2023/02/03 00:56:11;;;;;;;5.30;2.00;;;;;;;2.78;100.00;97404.84;6217594;22;20008;-91
2023/02/03 00:58:40;;;;;;;6.90;2.30;;;;;;;2.84;100.00;97399.34;6220630;22;20008;-90
2023/02/03 01:01:08;;;;;;;4.20;2.27;;;;;;;2.86;100.00;97400.09;6217085;22;20128;-91
2023/02/03 01:03:35;;;;;;;7.03;3.33;;;;;;;2.89;100.00;97399.94;6224917;22;20456;-88
2023/02/03 01:06:23;;;;;;;5.83;2.37;;;;;;;2.86;100.00;97407.91;6229680;22;20141;-90
2023/02/03 01:09:02;;;;;;;4.17;1.83;;;;;;;2.86;100.00;97397.50;6225109;22;20052;-90
2023/02/03 01:11:31;;;;;;;4.70;1.80;;;;;;;2.87;100.00;97401.75;6218570;22;20039;-90
2023/02/03 01:14:00;;;;;;;3.50;1.70;;;;;;;2.88;100.00;97384.41;6220587;22;20031;-89
2023/02/03 01:16:35;;;;;;;3.60;1.80;;;;;;;2.88;100.00;97384.41;6221959;22;20016;-90
2023/02/03 01:19:04;;;;;;;4.93;1.40;;;;;;;2.88;100.00;97374.84;6222621;22;20087;-90
2023/02/03 01:21:35;;;;;;;3.03;1.70;;;;;;;2.89;100.00;97379.16;6222240;22;20011;-90
2023/02/03 01:24:08;;;;;;;4.03;1.50;;;;;;;2.85;100.00;97380.25;6222453;22;20008;-91
2023/02/03 01:26:34;;;;;;;3.13;1.63;;;;;;;2.89;100.00;97380.91;6197801;22;20030;-91
2023/02/03 01:29:07;;;;;;;2.80;1.27;;;;;;;2.92;100.00;97385.91;6247892;22;21100;-89
2023/02/03 01:31:41;;;;;;;3.57;1.40;;;;;;;2.87;100.00;97375.78;6222491;22;20451;-90
2023/02/03 01:34:26;;;;;;;5.47;1.80;;;;;;;2.91;100.00;97379.06;6222726;22;20356;-90
2023/02/03 01:36:52;;;;;;;4.77;1.50;;;;;;;2.86;100.00;97363.72;6222213;22;20107;-90
2023/02/03 01:39:18;;;;;;;4.70;1.63;;;;;;;2.89;100.00;97360.13;6221560;22;20484;-90
2023/02/03 01:41:52;;;;;;;4.67;1.33;;;;;;;2.89;100.00;97353.16;6245729;22;20483;-90
2023/02/03 01:44:51;;;;;;;5.23;2.27;;;;;;;2.87;100.00;97355.00;6218105;22;20011;-90
2023/02/03 01:47:23;;;;;;;2.23;1.20;;;;;;;2.89;100.00;97358.38;6136746;22;20042;-90
2023/02/03 01:50:05;;;;;;;2.93;1.30;;;;;;;2.87;100.00;97346.38;6219143;22;20011;-90
2023/02/03 01:52:38;;;;;;;1.80;0.93;;;;;;;2.84;100.00;97327.41;6216574;22;20066;-90
2023/02/03 01:55:11;;;;;;;4.50;1.40;;;;;;;2.86;100.00;97339.50;6218112;22;20066;-90
2023/02/03 01:57:45;;;;;;;3.10;1.40;;;;;;;2.86;100.00;97329.94;6217344;22;20023;-90
2023/02/03 02:00:19;;;;;;;2.83;1.50;;;;;;;2.88;100.00;97348.03;6216986;22;20012;-91
2023/02/03 02:02:47;;;;;;;4.03;1.40;;;;;;;2.90;100.00;97339.25;6216984;22;20015;-90
2023/02/03 02:05:47;;;;;;;2.77;1.50;;;;;;;2.92;100.00;97340.00;6244199;22;20023;-92
2023/02/03 02:08:18;;;;;;;3.83;1.50;;;;;;;2.92;100.00;97334.81;6211378;22;20083;-90
2023/02/03 02:10:45;;;;;;;2.13;1.27;;;;;;;2.96;100.00;97325.91;6216884;22;20015;-90
2023/02/03 02:13:20;;;;;;;2.87;1.60;;;;;;;2.88;100.00;97317.69;6218819;22;20004;-90
2023/02/03 02:16:07;;;;;;;3.37;1.53;;;;;;;2.97;100.00;97321.56;6220626;22;20038;-90
2023/02/03 02:19:20;;;;;;;4.70;1.50;;;;;;;2.92;100.00;97314.03;6223043;22;20015;-90
2023/02/03 02:22:31;;;;;;;2.60;1.43;;;;;;;2.95;100.00;97311.25;6244734;22;20010;-92
2023/02/03 02:25:46;;;;;;;2.58;1.50;;;;;;;2.94;100.00;97306.97;6219393;22;20053;-90
2023/02/03 02:32:02;;;;;;;;;;;;;;;;;;;;;
2023/02/03 02:34:58;;;;;;;3.07;1.50;;;;;;;2.88;100.00;97293.47;6270501;22;20075;-92
2023/02/03 02:41:29;;;;;;;2.53;1.30;;;;;;;2.90;100.00;97266.50;6223508;22;20015;-91
2023/02/03 02:44:45;;;;;;;3.17;1.53;;;;;;;2.90;100.00;97263.91;6145323;22;20075;-91
2023/02/03 02:47:35;;;;;;;3.87;1.90;;;;;;;2.85;100.00;97265.94;6252991;22;20330;-91
2023/02/03 02:50:16;;;;;;;4.67;1.43;;;;;;;2.84;100.00;97270.28;6218097;22;20103;-91
2023/02/03 02:52:56;;;;;;;5.17;1.90;;;;;;;2.88;100.00;97280.50;6224600;22;20016;-91
2023/02/03 03:03:57;;;;;;;2.70;1.40;;;;;;;2.86;100.00;97293.59;6299156;22;20029;-91
2023/02/03 03:07:03;;;;;;;4.27;1.73;;;;;;;2.90;100.00;97296.84;6227909;22;20012;-90
2023/02/03 03:09:54;;;;;;;4.97;1.93;;;;;;;2.93;100.00;97297.50;6225320;22;20333;-90
2023/02/03 03:12:45;;;;;;;3.73;2.03;;;;;;;2.90;100.00;97283.84;6248725;22;20039;-90
2023/02/03 03:15:45;;;;;;;;;;;;;;;;;;;;;
2023/02/03 03:18:16;;;;;;;3.17;1.90;;;;;;;2.95;100.00;97293.06;6244771;22;20465;-90
2023/02/03 03:21:07;;;;;;;7.10;2.23;;;;;;;2.94;100.00;97291.38;6220379;22;20018;-91
2023/02/03 03:23:51;;;;;;;6.83;3.30;;;;;;;2.95;100.00;97294.81;6217590;22;20007;-91
2023/02/03 03:26:34;;;;;;;4.13;2.10;;;;;;;2.96;100.00;97294.75;6239778;22;20012;-91
2023/02/03 03:29:15;;;;;;;3.73;1.67;;;;;;;2.90;100.00;97295.06;6216054;22;20020;-91
2023/02/03 03:31:49;;;;;;;3.42;1.88;;;;;;;2.94;100.00;97304.38;6240581;22;20016;-91
2023/02/03 03:34:20;;;;;;;5.17;1.93;;;;;;;2.93;100.00;97307.06;6212714;22;20035;-91
2023/02/03 03:37:21;;;;;;;5.73;2.00;;;;;;;2.94;100.00;97306.13;6212989;22;20012;-90
2023/02/03 03:39:54;;;;;;;4.70;2.00;;;;;;;3.00;100.00;97301.44;6211743;22;20007;-90
2023/02/03 03:42:26;;;;;;;4.37;2.30;;;;;;;2.97;100.00;97306.81;6213440;22;20016;-90
2023/02/03 03:45:13;;;;;;;7.13;2.10;;;;;;;3.02;100.00;97309.16;6218081;22;20042;-90
2023/02/03 03:48:08;;;;;;;4.87;2.43;;;;;;;2.98;100.00;97323.22;6215984;22;20020;-92
2023/02/03 03:50:44;;;;;;;6.13;2.30;;;;;;;3.01;100.00;97318.69;6243301;22;20025;-91
2023/02/03 03:53:12;;;;;;;4.00;2.00;;;;;;;3.01;100.00;97321.28;6248992;22;20103;-90
2023/02/03 03:55:40;;;;;;;3.73;2.20;;;;;;;3.01;100.00;97325.66;6224475;22;20098;-90
2023/02/03 03:58:21;;;;;;;7.07;2.23;;;;;;;3.02;100.00;97341.19;6224838;22;20011;-90
2023/02/03 04:00:49;;;;;;;4.93;1.83;;;;;;;3.03;100.00;97342.00;6224308;22;20011;-90
2023/02/03 04:03:31;;;;;;;4.73;2.20;;;;;;;3.06;100.00;97345.28;6225262;22;20015;-91
2023/02/03 04:05:57;;;;;;;5.73;2.90;;;;;;;3.07;100.00;97349.53;6223433;22;20457;-89
2023/02/03 04:08:23;;;;;;;6.03;2.20;;;;;;;3.10;100.00;97350.31;6248941;22;20004;-88
2023/02/03 04:10:48;;;;;;;5.40;2.30;;;;;;;3.09;100.00;97351.22;6247299;22;20019;-90
2023/02/03 04:13:19;;;;;;;6.23;2.10;;;;;;;3.03;100.00;97337.66;6222123;22;20007;-90
2023/02/03 04:15:47;;;;;;;5.03;2.30;;;;;;;3.03;100.00;97329.00;6222863;22;20016;-90
2023/02/03 04:18:14;;;;;;;4.97;2.00;;;;;;;3.09;100.00;97320.03;6223599;22;20023;-90
2023/02/03 04:20:40;;;;;;;3.73;2.20;;;;;;;3.03;100.00;97321.22;6221719;22;20091;-90
2023/02/03 04:23:07;;;;;;;4.53;1.77;;;;;;;3.05;100.00;97315.03;6221307;22;20012;-91
2023/02/03 04:25:35;;;;;;;4.50;2.37;;;;;;;3.01;100.00;97299.66;6221315;22;20000;-90
2023/02/03 04:28:08;;;;;;;3.73;1.90;;;;;;;3.06;100.00;97316.69;6221086;22;20059;-90
2023/02/03 04:30:41;;;;;;;5.83;1.97;;;;;;;3.07;100.00;97314.91;6220454;22;20462;-90
2023/02/03 04:33:10;;;;;;;3.67;2.20;;;;;;;3.00;100.00;97308.41;6222285;22;20016;-90
2023/02/03 04:35:44;;;;;;;2.97;1.87;;;;;;;3.01;100.00;97305.69;6247655;22;20161;-90
2023/02/03 04:38:13;;;;;;;5.47;2.13;;;;;;;3.00;100.00;97301.44;6222289;22;20747;-90
2023/02/03 04:40:39;;;;;;;4.20;2.20;;;;;;;2.98;100.00;97292.88;6221679;22;20008;-91
2023/02/03 04:43:06;;;;;;;4.80;1.63;;;;;;;2.97;100.00;97299.00;6223185;22;20095;-90
2023/02/03 04:45:32;;;;;;;4.40;1.73;;;;;;;2.99;100.00;97299.78;6222094;22;20049;-90
2023/02/03 04:48:00;;;;;;;4.53;1.97;;;;;;;3.00;100.00;97305.78;6218088;22;20383;-90
2023/02/03 04:50:26;;;;;;;4.03;1.57;;;;;;;2.99;100.00;97301.53;6221953;22;20034;-89
2023/02/03 04:52:52;;;;;;;3.30;1.53;;;;;;;3.02;100.00;97303.97;6234918;22;20016;-89
2023/02/03 04:55:18;;;;;;;4.47;1.93;;;;;;;2.99;100.00;97304.97;6238314;22;20492;-90
2023/02/03 04:57:47;;;;;;;4.07;2.30;;;;;;;3.01;100.00;97284.06;6232687;22;20027;-90
2023/02/03 05:00:14;;;;;;;4.57;1.90;;;;;;;3.02;100.00;97268.41;6225162;22;20066;-89
2023/02/03 05:03:01;;;;;;;4.00;1.60;;;;;;;2.99;100.00;97265.16;6225132;22;20042;-89
2023/02/03 05:05:27;;;;;;;7.17;2.27;;;;;;;3.02;100.00;97281.41;6250720;22;20011;-89
2023/02/03 05:08:12;;;;;;;6.37;2.57;;;;;;;3.02;100.00;97278.81;6226197;22;20443;-90
2023/02/03 05:10:38;;;;;;;7.40;3.00;;;;;;;3.02;100.00;97276.22;6236063;22;20027;-94
2023/02/03 05:13:04;;;;;;;3.63;2.00;;;;;;;3.03;100.00;97283.06;6251675;22;20008;-92
2023/02/03 05:15:30;;;;;;;3.53;1.77;;;;;;;3.04;100.00;97287.34;6256537;22;20019;-89
2023/02/03 05:18:00;;;;;;;4.50;1.53;;;;;;;3.02;100.00;97289.19;6225559;22;20072;-89
2023/02/03 05:20:27;;;;;;;6.60;1.80;;;;;;;3.03;100.00;97280.47;6224733;22;20069;-89
2023/02/03 05:22:54;;;;;;;5.37;2.10;;;;;;;3.04;100.00;97270.91;6225505;22;20019;-90
2023/02/03 05:25:20;;;;;;;4.90;1.87;;;;;;;3.05;100.00;97278.63;6223534;22;20019;-89
2023/02/03 05:27:46;;;;;;;4.70;1.30;;;;;;;3.04;100.00;97276.94;6222425;22;20081;-88
2023/02/03 05:30:25;;;;;;;5.93;2.07;;;;;;;3.07;100.00;97271.56;6225227;22;20012;-94
2023/02/03 05:32:54;;;;;;;3.40;1.67;;;;;;;3.01;100.00;97282.31;6253508;22;20397;-94
2023/02/03 05:35:30;;;;;;;5.87;1.90;;;;;;;3.01;100.00;97295.31;6261151;22;20089;-90
2023/02/03 05:37:56;;;;;;;2.73;1.50;;;;;;;3.04;100.00;97297.72;6222330;22;20012;-91
2023/02/03 05:43:13;;;;;;;4.87;2.13;;;;;;;3.02;100.00;97304.78;6245691;22;20016;-88
2023/02/03 05:45:38;;;;;;;4.23;1.50;;;;;;;3.01;100.00;97292.69;6230532;22;20104;-89
2023/02/03 05:48:06;;;;;;;5.70;1.80;;;;;;;2.96;100.00;97284.34;6237689;22;20007;-89
2023/02/03 05:50:32;;;;;;;4.30;2.20;;;;;;;2.98;100.00;97289.44;6222460;22;20003;-89
2023/02/03 05:53:06;;;;;;;5.77;2.17;;;;;;;2.95;100.00;97287.88;6223360;22;20065;-89
2023/02/03 05:55:40;;;;;;;4.07;1.53;;;;;;;2.94;100.00;97280.97;6246297;22;20046;-89
2023/02/03 05:58:05;;;;;;;3.70;1.80;;;;;;;2.91;100.00;97285.53;6220746;22;20094;-90
2023/02/03 06:00:40;;;;;;;3.00;1.53;;;;;;;2.93;100.00;97288.88;6220690;22;20035;-89
2023/02/03 06:03:06;;;;;;;3.90;1.80;;;;;;;2.96;100.00;97299.09;6220923;22;20083;-90
2023/02/03 06:05:34;;;;;;;4.83;2.10;;;;;;;2.96;100.00;97294.75;6222532;22;20042;-90
2023/02/03 06:08:02;;;;;;;3.90;1.90;;;;;;;2.99;100.00;97297.16;6222466;22;20008;-91
2023/02/03 06:10:27;;;;;;;3.20;1.63;;;;;;;2.95;100.00;97303.47;6219815;22;20019;-88
2023/02/03 06:12:57;;;;;;;6.20;2.57;;;;;;;2.98;100.00;97316.25;6220126;22;20209;-88
2023/02/03 06:15:24;;;;;;;3.23;1.70;;;;;;;2.99;100.00;97322.31;6244844;22;20889;-89
2023/02/03 06:17:50;;;;;;;6.23;2.43;;;;;;;3.02;100.00;97335.16;6222624;22;20047;-88
2023/02/03 06:20:18;;;;;;;3.87;1.70;;;;;;;3.05;100.00;97334.94;6223930;22;20382;-89
2023/02/03 06:22:44;;;;;;;18.83;10.53;;;;;;;3.04;100.00;97335.88;6220672;22;20069;-90
2023/02/03 06:25:10;;;;;;;3.77;1.97;;;;;;;2.99;100.00;97330.94;6220711;22;20022;-88
2023/02/03 06:27:41;;;;;;;6.97;2.60;;;;;;;3.04;100.00;97325.47;6216649;22;20042;-88
2023/02/03 06:30:10;;;;;;;7.87;2.90;;;;;;;2.99;100.00;97302.38;6219475;22;20022;-90
2023/02/03 06:32:35;;;;;;;10.07;3.07;;;;;;;2.97;100.00;97287.78;6219399;22;20030;-87
2023/02/03 06:35:01;;;;;;;16.00;4.73;;;;;;;2.97;100.00;97290.38;6220232;22;20090;-90
2023/02/03 06:37:27;;;;;;;4.90;2.60;;;;;;;2.99;100.00;97288.53;6220602;22;20004;-89
2023/02/03 06:40:10;;;;;;;8.00;3.33;;;;;;;2.98;100.00;97285.06;6219800;22;20228;-88
2023/02/03 06:42:44;;;;;;;7.53;3.10;;;;;;;2.97;100.00;97286.00;6220248;22;20016;-88
2023/02/03 06:45:10;;;;;;;6.43;3.10;;;;;;;2.94;100.00;97280.16;6218256;22;20026;-87
2023/02/03 06:47:44;;;;;;;6.93;3.53;;;;;;;2.97;100.00;97285.19;6219815;22;20012;-89
2023/02/03 06:50:19;;;;;;;10.67;5.03;;;;;;;2.96;100.00;97284.34;6247689;22;20047;-91
2023/02/03 06:52:48;;;;;;;6.07;2.70;;;;;;;2.99;100.00;97278.97;6223331;22;20091;-90
2023/02/03 06:55:31;;;;;;;8.93;3.00;;;;;;;2.97;100.00;97277.38;6224109;22;20011;-90
2023/02/03 06:58:13;;;;;;;4.73;2.53;;;;;;;2.95;100.00;97269.69;6250065;22;20427;-91
2023/02/03 07:00:43;;;;;;;6.07;2.80;;;;;;;2.95;100.00;97255.84;6222740;22;20085;-91
2023/02/03 07:03:15;;;;;;;7.50;2.40;;;;;;;3.09;100.00;97257.69;6222199;22;20457;-91
2023/02/03 07:05:50;;;;;;;8.00;3.00;;;;;;;3.14;100.00;97246.06;6248656;22;20018;-90
2023/02/03 07:08:34;;;;;;;4.57;2.57;;;;;;;3.16;100.00;97248.59;6223789;22;20043;-91
2023/02/03 07:14:52;;;;;;;5.63;2.67;;;;;;;3.30;100.00;97246.03;6239932;22;20024;-90
2023/02/03 07:17:53;;;;;;;5.20;2.80;;;;;;;3.35;100.00;97243.97;6196462;23;20012;-91
2023/02/03 07:20:21;;;;;;;14.97;7.83;;;;;;;3.61;100.00;97239.00;6187289;23;20748;-87
2023/02/03 07:23:23;;;;;;;4.77;2.80;;;;;;;3.51;100.00;97239.56;6202643;23;20013;-90
2023/02/03 07:25:49;;;;;;;14.23;3.73;;;;;;;3.51;100.00;97244.75;6170157;23;20036;-88
2023/02/03 07:28:15;;;;;;;5.93;2.67;;;;;;;3.48;100.00;97255.34;6187537;23;20054;-88
2023/02/03 07:30:40;;;;;;;3.57;2.03;;;;;;;3.48;100.00;97249.28;6185731;23;20016;-88
2023/02/03 07:33:13;;;;;;;5.43;2.77;;;;;;;3.60;100.00;97258.16;6181429;23;20488;-87
2023/02/03 07:35:39;;;;;;;4.53;2.40;;;;;;;3.52;100.00;97275.06;6159753;23;20003;-89
2023/02/03 07:38:07;;;;;;;4.17;2.63;;;;;;;3.62;100.00;97283.16;6182705;23;20009;-90
2023/02/03 07:40:38;;;;;;;7.27;2.47;;;;;;;3.54;100.00;97285.34;6185488;23;20013;-90
2023/02/03 07:43:27;;;;;;;37.33;19.20;;;;;;;3.58;100.00;97297.25;6187666;23;20066;-89
2023/02/03 07:46:40;;;;;;;61.33;35.03;;;;;;;3.68;100.00;97302.75;6189373;23;20020;-89
2023/02/03 07:49:05;;;;;;;33.90;17.50;;;;;;;3.65;100.00;97298.56;6188572;23;20072;-91
2023/02/03 07:51:32;;;;;;;14.40;8.57;;;;;;;3.67;100.00;97304.50;6179646;23;20035;-90
2023/02/03 07:54:02;;;;;;;12.97;5.80;;;;;;;3.57;100.00;97310.34;6161653;23;20154;-90
2023/02/03 07:56:32;;;;;;;10.93;5.00;;;;;;;3.59;100.00;97305.88;6187605;23;20016;-90
2023/02/03 07:59:01;;;;;;;7.23;2.90;;;;;;;3.50;100.00;97310.69;6165021;23;20020;-90
2023/02/03 08:01:48;;;;;;;7.13;2.63;;;;;;;3.63;100.00;97308.22;6187911;23;20088;-90
2023/02/03 08:04:20;;;;;;;16.50;3.20;;;;;;;3.70;100.00;97295.69;6162557;23;20013;-90
2023/02/03 08:07:35;;;;;;;6.10;1.80;;;;;;;3.67;100.00;97275.06;6189598;23;20036;-90
2023/02/03 08:10:10;;;;;;;10.53;2.53;;;;;;;3.54;100.00;97298.34;6162979;23;20024;-89
2023/02/03 08:12:39;;;;;;;4.57;1.60;;;;;;;3.78;100.00;97293.47;6160230;23;20557;-90
2023/02/03 08:18:58;;;;;;;90.60;33.53;;;;;;;3.87;100.00;97286.88;6147613;23;20019;-88
2023/02/03 08:32:37;;;;;;;26.10;4.77;;;;;;;3.78;100.00;97298.66;6120552;23;20016;-88
2023/02/03 08:35:48;;;;;;;;;;;;;;;;;;;;;
2023/02/03 08:39:42;;;;;;;;;;;;;;;;;;;;;
2023/02/03 08:42:30;;;;;;;17.80;3.40;;;;;;;3.75;100.00;97289.28;6177569;23;20091;-89
2023/02/03 08:44:56;;;;;;;17.77;2.47;;;;;;;3.76;100.00;97296.16;6194197;23;20577;-89
2023/02/03 08:47:24;;;;;;;16.53;4.03;;;;;;;3.81;100.00;97298.50;6194000;23;20004;-89
2023/02/03 08:49:56;;;;;;;29.33;4.27;;;;;;;3.68;100.00;97290.56;6193254;23;20089;-89
2023/02/03 08:52:37;;;;;;;12.43;2.50;;;;;;;3.75;100.00;97278.03;6192837;23;20439;-89
2023/02/03 09:02:38;;;;;;;18.67;4.00;;;;;;;3.97;100.00;97314.03;6246885;23;20074;-89
2023/02/03 09:05:06;;;;;;;8.37;1.87;;;;;;;3.85;100.00;97289.56;6193301;23;20613;-88
2023/02/03 09:07:38;;;;;;;17.13;3.50;;;;;;;4.00;100.00;97293.88;6191239;23;20014;-88
2023/02/03 09:10:07;;;;;;;84.77;32.37;;;;;;;4.23;100.00;97295.06;6191449;23;20012;-89
2023/02/03 09:29:06;;;;;;;53.67;14.07;;;;;;;3.95;100.00;97315.88;6269619;22;20052;-89
2023/02/03 09:31:42;;;;;;;51.27;25.73;;;;;;;4.15;100.00;97305.09;6209624;23;20107;-91
2023/02/03 09:34:20;;;;;;;27.93;12.03;;;;;;;3.87;100.00;97297.28;6212733;23;20050;-91
2023/02/03 09:37:11;;;;;;;;;;;;;;;;;;;;;
2023/02/03 09:39:47;;;;;;;159.17;26.70;;;;;;;4.74;100.00;97315.38;6221909;23;20514;-90
2023/02/03 09:42:24;;;;;;;302.90;49.47;;;;;;;4.92;100.00;97293.34;6200838;23;20058;-89
2023/02/03 09:45:04;;;;;;;51.00;8.33;;;;;;;4.71;100.00;97308.56;6199286;23;20008;-88
2023/02/03 09:47:40;;;;;;;101.77;15.50;;;;;;;4.93;100.00;97289.81;6197369;23;20043;-90
2023/02/03 09:50:26;;;;;;;351.47;39.27;;;;;;;5.02;100.00;97287.53;6200701;23;20336;-89
2023/02/03 09:52:55;;;;;;;23.67;4.70;;;;;;;4.87;100.00;97284.16;6196545;23;20066;-87
2023/02/03 09:55:34;;;;;;;25.07;4.67;;;;;;;4.71;100.00;97282.53;6192439;23;20099;-88
2023/02/03 09:58:05;;;;;;;368.60;38.77;;;;;;;4.64;100.00;97278.63;6193120;23;20043;-88
2023/02/03 10:00:39;;;;;;;366.20;44.33;;;;;;;4.94;100.00;97296.69;6194994;23;20008;-89
2023/02/03 10:03:36;;;;;;;119.83;11.23;;;;;;;4.73;100.00;97292.88;6194727;23;20513;-89
2023/02/03 10:06:41;;;;;;;;;;;;;;;;;;;;;
2023/02/03 10:09:11;;;;;;;245.97;30.70;;;;;;;5.07;100.00;97285.50;6222839;23;20046;-87
2023/02/03 10:12:04;;;;;;;23.33;5.87;;;;;;;4.77;100.00;97293.50;6192850;23;20066;-88
2023/02/03 10:14:44;;;;;;;17.00;2.10;;;;;;;4.66;100.00;97294.16;6200862;23;20707;-89
2023/02/03 10:17:35;;;;;;;268.23;27.23;;;;;;;4.73;100.00;97298.06;6198314;23;20039;-88
2023/02/03 10:20:34;;;;;;;49.97;5.63;;;;;;;4.78;100.00;97302.97;6197421;23;20428;-89
2023/02/03 10:23:13;;;;;;;1064.63;136.07;;;;;;;5.63;100.00;97297.41;6220671;23;20008;-87
2023/02/03 10:25:54;;;;;;;71.40;10.60;;;;;;;5.13;100.00;97300.72;6197240;23;20014;-88
2023/02/03 10:28:26;;;;;;;22.77;3.70;;;;;;;4.79;100.00;97304.66;6211872;23;20011;-86
2023/02/03 10:30:57;;;;;;;50.50;7.77;;;;;;;4.55;100.00;97317.44;6173985;23;20016;-87
2023/02/03 10:34:10;;;;;;;3.83;1.27;;;;;;;4.15;100.00;97318.13;6164340;23;20021;-88
2023/02/03 10:37:22;;;;;;;4.47;1.47;;;;;;;4.12;100.00;97317.47;6167237;23;20023;-88
2023/02/03 10:39:54;;;;;;;3.83;1.60;;;;;;;3.93;100.00;97313.38;6166574;23;20088;-88
2023/02/03 10:45:23;;;;;;;35.23;19.13;;;;;;;3.86;100.00;97306.88;6188357;23;20008;-88
2023/02/03 10:48:00;;;;;;;23.40;7.60;;;;;;;3.96;100.00;97309.78;6163632;23;20047;-88
2023/02/03 10:50:40;;;;;;;9.60;3.83;;;;;;;3.96;100.00;97322.78;6164930;23;20008;-88
2023/02/03 10:53:39;;;;;;;30.07;12.70;;;;;;;3.85;100.00;97330.38;6162502;23;20011;-88
2023/02/03 10:56:16;;;;;;;7.03;2.80;;;;;;;3.84;100.00;97319.13;6163306;23;20321;-88
2023/02/03 10:59:05;;;;;;;3.70;1.90;;;;;;;3.79;100.00;97310.78;6163723;23;20035;-88
2023/02/03 11:01:51;;;;;;;5.50;2.20;;;;;;;3.77;100.00;97294.41;6163216;23;20044;-90
2023/02/03 11:04:41;;;;;;;;;;;;;;;;;;;;;
2023/02/03 11:11:50;;;;;;;5.00;2.30;;;;;;;3.87;100.00;97282.53;6183844;23;20313;-89
2023/02/03 11:14:16;;;;;;;8.97;4.70;;;;;;;3.92;100.00;97274.41;6168983;23;20021;-88
2023/02/03 11:17:06;;;;;;;5.13;2.47;;;;;;;3.82;100.00;97258.53;6161904;23;20016;-89
2023/02/03 11:19:38;;;;;;;5.20;2.07;;;;;;;3.91;100.00;97244.13;6163256;23;20036;-89
2023/02/03 11:26:42;;;;;;;2.30;1.20;;;;;;;4.00;100.00;97267.00;6196331;23;20439;-89
2023/02/03 12:03:53;;;;;;;2.30;0.90;;;;;;;4.49;100.00;97168.44;6243030;22;20042;-89
2023/02/03 12:06:29;;;;;;;2.47;1.00;;;;;;;4.56;100.00;97171.50;6245198;22;20447;-93
2023/02/03 12:09:26;;;;;;;1.53;0.87;;;;;;;4.44;100.00;97162.69;6257808;22;20525;-90
2023/02/03 12:11:52;;;;;;;2.37;1.00;;;;;;;4.49;100.00;97167.56;6258350;22;20244;-91
2023/02/03 12:14:27;;;;;;;3.07;1.50;;;;;;;4.50;100.00;97164.06;6253618;22;20040;-89
2023/02/03 12:17:14;;;;;;;2.93;1.30;;;;;;;4.44;100.00;97154.03;6275527;22;20039;-87
2023/02/03 12:20:13;;;;;;;2.73;1.13;;;;;;;4.49;100.00;97158.03;6249053;22;20012;-86
2023/02/03 12:23:08;;;;;;;10.70;5.97;;;;;;;4.40;100.00;97160.38;6249326;22;20019;-89
2023/02/03 12:25:59;;;;;;;6.13;1.63;;;;;;;4.36;100.00;97151.94;6251326;22;20443;-88
2023/02/03 12:28:40;;;;;;;33.40;20.20;;;;;;;4.40;100.00;97140.38;6231376;22;20016;-88
2023/02/03 12:31:12;;;;;;;62.63;36.63;;;;;;;4.40;100.00;97132.56;6251067;22;20019;-88
2023/02/03 12:33:59;;;;;;;4.65;3.05;;;;;;;4.37;100.00;97130.16;6251522;22;20431;-89
2023/02/03 12:36:31;;;;;;;3.93;1.80;;;;;;;4.38;100.00;97139.63;6251698;22;20012;-89
2023/02/03 12:39:29;;;;;;;3.37;1.87;;;;;;;4.33;100.00;97128.69;6251384;22;20039;-88
2023/02/03 12:42:02;;;;;;;3.03;1.33;;;;;;;4.40;100.00;97129.97;6252412;22;20008;-89
2023/02/03 12:44:34;;;;;;;3.10;1.50;;;;;;;4.43;100.00;97127.16;6252795;22;20019;-89
2023/02/03 12:47:25;;;;;;;2.73;1.63;;;;;;;4.35;100.00;97126.81;6253321;22;20003;-88
2023/02/03 12:50:05;;;;;;;3.90;1.30;;;;;;;4.29;100.00;97129.78;6252612;22;20012;-88
2023/02/03 12:52:41;;;;;;;3.15;1.20;;;;;;;4.34;100.00;97125.16;6254109;22;20037;-89
2023/02/03 12:55:32;;;;;;;2.37;1.23;;;;;;;4.28;100.00;97141.16;6254836;22;20046;-88
2023/02/03 12:58:27;;;;;;;2.97;1.23;;;;;;;4.28;100.00;97129.91;6257029;22;20073;-87
2023/02/03 13:01:28;;;;;;;3.50;1.70;;;;;;;4.35;100.00;97142.44;6257214;22;20015;-88
2023/02/03 13:04:21;;;;;;;2.97;1.10;;;;;;;4.27;100.00;97139.50;6251589;22;20012;-88
2023/02/03 13:07:42;;;;;;;3.10;1.03;;;;;;;4.19;100.00;97140.00;6251712;22;20015;-88
2023/02/03 13:10:28;;;;;;;2.60;1.50;;;;;;;4.17;100.00;97144.44;6249492;22;20065;-87
2023/02/03 13:12:57;;;;;;;34.60;13.83;;;;;;;4.30;100.00;97133.25;6203049;22;20015;-85
2023/02/03 13:15:31;;;;;;;41.43;23.10;;;;;;;4.35;100.00;97121.59;6243816;22;20015;-89
2023/02/03 13:18:09;;;;;;;4.50;2.20;;;;;;;4.31;100.00;97108.88;6251338;22;20095;-87
2023/02/03 13:20:41;;;;;;;5.10;1.60;;;;;;;4.36;100.00;97119.81;6250897;22;20016;-88
2023/02/03 13:23:16;;;;;;;6.17;2.20;;;;;;;4.39;100.00;97114.41;6251485;22;20073;-88
2023/02/03 13:26:06;;;;;;;2.73;1.40;;;;;;;4.34;100.00;97114.72;6251974;22;20015;-89
2023/02/03 13:29:23;;;;;;;3.70;1.27;;;;;;;4.34;100.00;97108.69;6251981;22;20066;-89
2023/02/03 13:32:07;;;;;;;2.97;1.23;;;;;;;4.26;100.00;97106.59;6201645;22;20509;-89
2023/02/03 13:35:15;;;;;;;3.63;1.63;;;;;;;4.34;100.00;97099.09;6258575;22;20015;-89
2023/02/03 13:37:43;;;;;;;2.90;1.37;;;;;;;4.32;100.00;97085.34;6204356;22;20023;-89
2023/02/03 13:40:48;;;;;;;3.73;1.57;;;;;;;4.38;100.00;97094.53;6253011;22;20107;-89
2023/02/03 13:43:19;;;;;;;6.40;2.93;;;;;;;4.20;100.00;97086.16;6253301;22;20035;-89
2023/02/03 13:45:49;;;;;;;5.63;2.00;;;;;;;4.19;100.00;97080.13;6253678;22;20035;-87
2023/02/03 13:48:28;;;;;;;6.60;2.60;;;;;;;4.24;100.00;97082.41;6252837;22;20034;-88
2023/02/03 13:51:20;;;;;;;4.23;1.40;;;;;;;4.15;100.00;97077.78;6251864;22;20461;-88
2023/02/03 13:53:48;;;;;;;3.03;1.37;;;;;;;4.21;100.00;97095.63;6252083;22;20094;-87
2023/02/03 13:56:29;;;;;;;3.20;1.90;;;;;;;4.22;100.00;97110.28;6255099;22;20441;-89
2023/02/03 13:59:05;;;;;;;3.47;1.60;;;;;;;4.12;100.00;97130.03;6252913;22;20016;-89
2023/02/03 14:01:38;;;;;;;2.93;1.63;;;;;;;4.13;100.00;97126.53;6255970;22;20042;-90
2023/02/03 14:04:27;;;;;;;1.70;1.17;;;;;;;4.09;100.00;97132.84;6252795;22;20019;-90
2023/02/03 14:07:27;;;;;;;7.00;2.70;;;;;;;4.07;100.00;97126.91;6252636;22;20022;-89
2023/02/03 14:10:11;;;;;;;3.90;2.00;;;;;;;4.11;100.00;97116.19;6252696;22;20065;-89
2023/02/03 14:12:53;;;;;;;4.53;2.00;;;;;;;4.08;100.00;97119.00;6263351;22;20004;-90
2023/02/03 14:15:30;;;;;;;8.43;3.27;;;;;;;4.05;100.00;97118.34;6277962;22;20012;-89
2023/02/03 14:17:59;;;;;;;3.13;1.60;;;;;;;4.05;100.00;97120.94;6278820;22;20011;-88